Time;durP1;ratioP1;P1;durP2;ratioP2;P2;SDS_P1;SDS_P2;PMS_P1;PMS_P2;Temp;Humidity;BMP_temperature;BMP_pressure;BME280_temperature;BME280_humidity;BME280_pressure;Samples;Min_cycle;Max_cycle;Signal;HPM_P1;HPM_P2
2023/12/27 00:03:00;;;;;;;13.65;6.72;;;;;;;;;;6313291;28;20048;-77
2023/12/27 00:06:02;;;;;;;10.60;3.97;;;;;;;;;;6294037;28;20044;-76
2023/12/27 00:09:06;;;;;;;8.48;5.00;;;;;;;;;;6304251;28;20051;-76
2023/12/27 00:12:09;;;;;;;7.45;5.50;;;;;;;;;;6317875;28;20214;-76
2023/12/27 00:15:11;;;;;;;8.90;4.60;;;;;;;;;;6301891;28;20059;-77
2023/12/27 00:18:17;;;;;;;9.18;4.03;;;;;;;;;;6270483;28;20072;-76
2023/12/27 00:21:20;;;;;;;11.30;4.85;;;;;;;;;;6284425;28;20109;-75
2023/12/27 00:24:22;;;;;;;10.80;5.38;;;;;;;;;;6279442;28;20163;-75
2023/12/27 00:27:25;;;;;;;9.65;5.45;;;;;;;;;;6294126;28;20056;-75
2023/12/27 00:30:27;;;;;;;8.27;4.85;;;;;;;;;;6318190;28;20032;-75
2023/12/27 00:33:29;;;;;;;10.18;4.97;;;;;;;;;;6287910;28;20124;-75
2023/12/27 00:36:32;;;;;;;8.05;4.85;;;;;;;;;;6294323;28;20113;-76
2023/12/27 00:39:34;;;;;;;10.30;5.10;;;;;;;;;;6304315;28;20048;-75
2023/12/27 00:42:40;;;;;;;32.42;12.88;;;;;;;;;;6296609;28;20036;-75
2023/12/27 00:45:44;;;;;;;58.33;24.48;;;;;;;;;;6292427;28;20043;-75
2023/12/27 00:48:47;;;;;;;36.42;15.10;;;;;;;;;;6330814;28;20077;-75
2023/12/27 00:51:49;;;;;;;37.72;17.10;;;;;;;;;;6319482;28;20860;-75
2023/12/27 00:54:53;;;;;;;22.35;11.27;;;;;;;;;;6315552;28;20048;-75
2023/12/27 00:57:55;;;;;;;14.75;7.07;;;;;;;;;;6321423;28;20097;-76
2023/12/27 01:00:57;;;;;;;9.35;4.32;;;;;;;;;;6318107;28;20048;-75
2023/12/27 01:03:59;;;;;;;7.85;5.78;;;;;;;;;;6301679;28;20582;-75
2023/12/27 01:07:02;;;;;;;15.68;8.00;;;;;;;;;;6273039;28;20072;-75
2023/12/27 01:10:05;;;;;;;18.13;7.88;;;;;;;;;;6300411;28;20048;-75
2023/12/27 01:13:08;;;;;;;10.82;5.97;;;;;;;;;;6318700;28;20039;-75
2023/12/27 01:16:10;;;;;;;12.55;7.90;;;;;;;;;;6281969;28;20056;-76
2023/12/27 01:19:14;;;;;;;10.85;5.32;;;;;;;;;;6298035;28;20044;-76
2023/12/27 01:22:17;;;;;;;9.77;5.63;;;;;;;;;;6322828;28;20568;-76
2023/12/27 01:25:20;;;;;;;7.57;4.88;;;;;;;;;;6269664;28;20048;-75
2023/12/27 01:28:22;;;;;;;9.57;6.82;;;;;;;;;;6296937;28;20067;-77
2023/12/27 01:31:24;;;;;;;14.55;5.80;;;;;;;;;;6282168;28;20048;-75
2023/12/27 01:34:26;;;;;;;7.78;4.57;;;;;;;;;;6299595;28;20043;-75
2023/12/27 01:37:28;;;;;;;10.07;6.00;;;;;;;;;;6301407;28;20582;-75
2023/12/27 01:40:31;;;;;;;9.07;4.93;;;;;;;;;;6308536;28;20142;-76
2023/12/27 01:43:34;;;;;;;9.30;4.45;;;;;;;;;;6282351;28;20044;-76
2023/12/27 01:46:37;;;;;;;11.70;5.45;;;;;;;;;;6300551;28;20445;-76
2023/12/27 01:49:39;;;;;;;10.88;4.40;;;;;;;;;;6294923;28;20047;-76
2023/12/27 01:52:42;;;;;;;10.05;4.72;;;;;;;;;;6294286;28;20044;-76
2023/12/27 01:55:47;;;;;;;10.20;5.40;;;;;;;;;;6300409;28;20051;-75
2023/12/27 01:58:49;;;;;;;7.53;4.22;;;;;;;;;;6299873;28;20932;-75
2023/12/27 02:01:52;;;;;;;11.63;5.47;;;;;;;;;;6299958;28;20058;-75
2023/12/27 02:04:54;;;;;;;11.02;5.63;;;;;;;;;;6286586;28;20423;-75
2023/12/27 02:07:57;;;;;;;11.02;5.13;;;;;;;;;;6299548;28;20048;-75
2023/12/27 02:10:59;;;;;;;14.30;6.05;;;;;;;;;;6299032;28;20183;-74
2023/12/27 02:14:01;;;;;;;17.42;10.23;;;;;;;;;;6265022;28;20063;-75
2023/12/27 02:17:03;;;;;;;11.88;6.45;;;;;;;;;;6298583;28;20052;-75
2023/12/27 02:20:06;;;;;;;11.48;9.13;;;;;;;;;;6297867;28;20768;-75
2023/12/27 02:23:11;;;;;;;13.73;7.82;;;;;;;;;;6301263;28;20078;-75
2023/12/27 02:26:14;;;;;;;8.85;5.68;;;;;;;;;;6298457;28;20810;-76
2023/12/27 02:29:16;;;;;;;10.88;6.07;;;;;;;;;;6300878;28;20050;-75
2023/12/27 02:32:18;;;;;;;13.30;6.63;;;;;;;;;;6317346;28;20151;-75
2023/12/27 02:35:20;;;;;;;13.05;6.15;;;;;;;;;;6302264;28;20041;-75
2023/12/27 02:38:22;;;;;;;12.02;6.72;;;;;;;;;;6299112;28;20490;-75
2023/12/27 02:41:24;;;;;;;14.60;6.68;;;;;;;;;;6278851;28;20541;-75
2023/12/27 02:44:27;;;;;;;11.90;6.60;;;;;;;;;;6280002;28;20044;-75
2023/12/27 02:47:30;;;;;;;16.77;6.65;;;;;;;;;;6296084;28;20108;-76
2023/12/27 02:50:32;;;;;;;15.20;7.00;;;;;;;;;;6295012;28;20858;-76
2023/12/27 02:53:34;;;;;;;12.98;6.68;;;;;;;;;;6316805;28;20048;-76
2023/12/27 02:56:36;;;;;;;18.63;6.78;;;;;;;;;;6303598;28;20786;-76
2023/12/27 02:59:39;;;;;;;17.88;7.65;;;;;;;;;;6319004;28;20543;-76
2023/12/27 03:02:41;;;;;;;11.02;6.68;;;;;;;;;;6316283;28;20051;-76
2023/12/27 03:05:43;;;;;;;11.43;6.78;;;;;;;;;;6292184;28;20144;-76
2023/12/27 03:08:45;;;;;;;13.68;7.07;;;;;;;;;;6266512;28;20047;-76
2023/12/27 03:11:47;;;;;;;13.10;6.38;;;;;;;;;;6309132;28;20047;-76
2023/12/27 03:14:50;;;;;;;11.23;5.53;;;;;;;;;;6282618;28;20063;-76
2023/12/27 03:17:52;;;;;;;12.82;5.55;;;;;;;;;;6299063;28;20236;-76
2023/12/27 03:20:54;;;;;;;11.05;6.00;;;;;;;;;;6312691;28;20152;-76
2023/12/27 03:23:57;;;;;;;11.05;6.43;;;;;;;;;;6276321;28;20073;-75
2023/12/27 03:26:59;;;;;;;12.80;6.22;;;;;;;;;;6297591;28;20142;-74
2023/12/27 03:30:01;;;;;;;12.25;6.65;;;;;;;;;;6316224;28;21011;-75
2023/12/27 03:33:04;;;;;;;16.38;7.25;;;;;;;;;;6297221;28;20125;-75
2023/12/27 03:36:06;;;;;;;15.90;6.35;;;;;;;;;;6299372;28;20040;-76
2023/12/27 03:39:10;;;;;;;11.70;6.18;;;;;;;;;;6327858;28;20147;-76
2023/12/27 03:42:14;;;;;;;11.20;6.00;;;;;;;;;;6304388;28;20044;-75
2023/12/27 03:45:19;;;;;;;13.15;7.90;;;;;;;;;;6301443;28;20480;-75
2023/12/27 03:48:22;;;;;;;14.68;7.13;;;;;;;;;;6283158;28;20051;-75
2023/12/27 03:51:25;;;;;;;17.75;7.63;;;;;;;;;;6301329;28;20123;-75
2023/12/27 03:54:28;;;;;;;13.55;6.22;;;;;;;;;;6300033;28;20047;-75
2023/12/27 03:57:30;;;;;;;10.93;6.85;;;;;;;;;;6303547;28;20140;-75
2023/12/27 04:00:34;;;;;;;19.73;9.73;;;;;;;;;;6278319;28;20449;-75
2023/12/27 04:03:36;;;;;;;14.77;6.75;;;;;;;;;;6264857;28;20043;-76
2023/12/27 04:06:38;;;;;;;11.63;7.85;;;;;;;;;;6323392;28;20040;-76
2023/12/27 04:09:41;;;;;;;10.68;6.95;;;;;;;;;;6303490;28;20601;-75
2023/12/27 04:12:43;;;;;;;15.25;7.10;;;;;;;;;;6298639;28;20040;-75
2023/12/27 04:15:45;;;;;;;11.98;8.13;;;;;;;;;;6282469;28;20036;-75
2023/12/27 04:18:47;;;;;;;14.05;7.13;;;;;;;;;;6245311;28;20753;-75
2023/12/27 04:21:50;;;;;;;12.13;6.57;;;;;;;;;;6292480;28;20059;-75
2023/12/27 04:24:52;;;;;;;19.17;8.88;;;;;;;;;;6262654;28;20427;-75
2023/12/27 04:27:57;;;;;;;11.68;7.53;;;;;;;;;;6298841;28;20044;-76
2023/12/27 04:30:59;;;;;;;16.60;8.40;;;;;;;;;;6298793;28;20048;-76
2023/12/27 04:34:01;;;;;;;17.90;7.85;;;;;;;;;;6282291;28;20040;-75
2023/12/27 04:37:08;;;;;;;15.25;8.48;;;;;;;;;;6281331;28;20040;-74
2023/12/27 04:40:11;;;;;;;71.55;32.20;;;;;;;;;;6295654;28;20059;-75
2023/12/27 04:43:13;;;;;;;22.17;13.10;;;;;;;;;;6289248;28;20260;-76
2023/12/27 04:46:15;;;;;;;16.58;11.00;;;;;;;;;;6281347;28;20040;-76
2023/12/27 04:49:17;;;;;;;17.08;9.73;;;;;;;;;;6332420;27;20048;-76
2023/12/27 04:52:19;;;;;;;16.23;9.77;;;;;;;;;;6274579;28;20056;-77
2023/12/27 04:55:23;;;;;;;15.38;9.57;;;;;;;;;;6314571;28;20627;-77
2023/12/27 04:58:25;;;;;;;22.70;8.90;;;;;;;;;;6283276;28;20051;-76
2023/12/27 05:01:27;;;;;;;13.52;7.55;;;;;;;;;;6301467;28;20777;-77
2023/12/27 05:04:30;;;;;;;15.65;9.02;;;;;;;;;;6300227;28;20048;-77
2023/12/27 05:07:32;;;;;;;15.02;9.27;;;;;;;;;;6293187;28;20193;-77
2023/12/27 05:10:36;;;;;;;16.95;11.20;;;;;;;;;;6286766;28;20066;-77
2023/12/27 05:13:39;;;;;;;20.83;14.20;;;;;;;;;;6302354;28;20131;-76
2023/12/27 05:16:42;;;;;;;20.85;13.00;;;;;;;;;;6295195;28;20541;-75
2023/12/27 05:19:44;;;;;;;75.00;30.58;;;;;;;;;;6308872;28;20071;-76
2023/12/27 05:22:46;;;;;;;46.50;20.25;;;;;;;;;;6296042;28;20040;-75
2023/12/27 05:25:48;;;;;;;16.30;9.10;;;;;;;;;;6297989;28;20175;-76
2023/12/27 05:28:50;;;;;;;13.02;7.90;;;;;;;;;;6318382;28;20135;-76
2023/12/27 05:31:52;;;;;;;15.48;8.63;;;;;;;;;;6297589;28;20063;-76
2023/12/27 05:34:57;;;;;;;12.80;7.43;;;;;;;;;;6321642;28;20043;-77
2023/12/27 05:37:59;;;;;;;26.88;9.75;;;;;;;;;;6323224;28;20036;-77
2023/12/27 05:41:01;;;;;;;24.60;12.45;;;;;;;;;;6277250;28;20082;-74
2023/12/27 05:44:03;;;;;;;26.90;14.45;;;;;;;;;;6296235;28;20036;-74
2023/12/27 05:47:05;;;;;;;23.52;11.48;;;;;;;;;;6314215;28;20143;-73
2023/12/27 05:50:09;;;;;;;22.10;12.52;;;;;;;;;;6312312;28;20071;-74
2023/12/27 05:53:11;;;;;;;19.48;11.63;;;;;;;;;;6320543;28;20126;-74
2023/12/27 05:56:16;;;;;;;36.42;17.90;;;;;;;;;;6318267;28;20525;-74
2023/12/27 05:59:18;;;;;;;25.58;18.30;;;;;;;;;;6296635;28;20108;-74
2023/12/27 06:02:21;;;;;;;23.05;12.30;;;;;;;;;;6322047;28;20064;-74
2023/12/27 06:05:23;;;;;;;13.52;8.82;;;;;;;;;;6297698;28;20085;-74
2023/12/27 06:08:27;;;;;;;15.07;10.48;;;;;;;;;;6296154;28;20059;-74
2023/12/27 06:11:29;;;;;;;17.25;12.93;;;;;;;;;;6316987;28;20035;-74
2023/12/27 06:14:31;;;;;;;29.08;16.10;;;;;;;;;;6272731;28;20041;-74
2023/12/27 06:17:33;;;;;;;27.17;16.55;;;;;;;;;;6293817;28;20044;-74
2023/12/27 06:20:36;;;;;;;18.58;9.85;;;;;;;;;;6299416;28;20051;-74
2023/12/27 06:23:38;;;;;;;21.77;10.93;;;;;;;;;;6301499;28;20764;-73
2023/12/27 06:26:40;;;;;;;23.10;12.38;;;;;;;;;;6268832;28;20048;-73
2023/12/27 06:29:42;;;;;;;24.58;11.63;;;;;;;;;;6286748;28;20048;-72
2023/12/27 06:32:44;;;;;;;15.68;10.45;;;;;;;;;;6314091;28;20055;-73
2023/12/27 06:35:47;;;;;;;19.52;12.65;;;;;;;;;;6298017;28;20437;-74
2023/12/27 06:38:49;;;;;;;23.27;12.85;;;;;;;;;;6319877;28;20500;-73
2023/12/27 06:41:51;;;;;;;26.98;16.92;;;;;;;;;;6298937;28;20047;-74
2023/12/27 06:44:54;;;;;;;38.45;24.58;;;;;;;;;;6312154;28;20039;-73
2023/12/27 06:47:56;;;;;;;40.00;23.38;;;;;;;;;;6336850;28;20051;-74
2023/12/27 06:50:59;;;;;;;37.53;21.20;;;;;;;;;;6319778;28;20035;-74
2023/12/27 06:54:01;;;;;;;34.10;19.20;;;;;;;;;;6302172;28;20036;-74
2023/12/27 06:57:03;;;;;;;36.85;16.92;;;;;;;;;;6265541;28;20123;-75
2023/12/27 07:00:10;;;;;;;32.90;21.40;;;;;;;;;;6296778;28;20075;-74
2023/12/27 07:03:12;;;;;;;26.20;16.20;;;;;;;;;;6324324;27;20048;-74
2023/12/27 07:06:18;;;;;;;27.52;14.07;;;;;;;;;;6275928;28;20059;-74
2023/12/27 07:09:21;;;;;;;31.00;17.42;;;;;;;;;;6313271;28;20044;-74
2023/12/27 07:12:24;;;;;;;21.85;12.55;;;;;;;;;;6282350;28;20056;-74
2023/12/27 07:15:29;;;;;;;17.50;13.88;;;;;;;;;;6289980;28;20540;-74
2023/12/27 07:18:31;;;;;;;26.20;14.63;;;;;;;;;;6291392;28;20084;-74
2023/12/27 07:21:33;;;;;;;30.52;13.05;;;;;;;;;;6316942;28;20031;-74
2023/12/27 07:24:36;;;;;;;51.20;14.88;;;;;;;;;;6303665;28;20067;-73
2023/12/27 07:27:39;;;;;;;12.35;6.97;;;;;;;;;;6271824;28;20071;-73
2023/12/27 07:30:42;;;;;;;13.73;6.97;;;;;;;;;;6298016;28;20051;-74
2023/12/27 07:33:44;;;;;;;16.15;8.15;;;;;;;;;;6312063;28;20530;-74
2023/12/27 07:36:46;;;;;;;14.55;7.20;;;;;;;;;;6312368;28;20044;-74
2023/12/27 07:39:48;;;;;;;15.98;7.82;;;;;;;;;;6326571;28;20055;-73
2023/12/27 07:42:51;;;;;;;15.57;7.75;;;;;;;;;;6300906;28;20048;-74
2023/12/27 07:45:53;;;;;;;14.55;8.48;;;;;;;;;;6300268;28;20047;-74
2023/12/27 07:48:55;;;;;;;20.58;11.18;;;;;;;;;;6302412;28;20055;-74
2023/12/27 07:51:58;;;;;;;13.63;9.85;;;;;;;;;;6314306;28;20047;-74
2023/12/27 07:55:00;;;;;;;24.08;16.23;;;;;;;;;;6297285;28;20376;-74
2023/12/27 07:58:04;;;;;;;19.77;13.70;;;;;;;;;;6304330;28;20775;-74
2023/12/27 08:01:07;;;;;;;17.60;10.48;;;;;;;;;;6311922;28;20259;-73
2023/12/27 08:04:09;;;;;;;18.33;10.02;;;;;;;;;;6307884;28;20044;-74
2023/12/27 08:07:12;;;;;;;18.42;7.38;;;;;;;;;;6299978;28;20135;-74
2023/12/27 08:10:14;;;;;;;13.80;8.23;;;;;;;;;;6305073;28;20465;-74
2023/12/27 08:13:16;;;;;;;18.35;7.95;;;;;;;;;;6280888;28;20055;-73
2023/12/27 08:16:19;;;;;;;15.95;8.65;;;;;;;;;;6322580;28;20522;-74
2023/12/27 08:19:21;;;;;;;15.82;8.02;;;;;;;;;;6302322;28;20052;-73
2023/12/27 08:22:24;;;;;;;14.77;9.35;;;;;;;;;;6296685;28;20870;-74
2023/12/27 08:25:26;;;;;;;14.65;8.10;;;;;;;;;;6298973;28;20549;-73
2023/12/27 08:28:28;;;;;;;14.27;7.22;;;;;;;;;;6315255;28;20466;-73
2023/12/27 08:31:30;;;;;;;18.52;9.45;;;;;;;;;;6283450;28;20909;-73
2023/12/27 08:34:32;;;;;;;15.07;7.90;;;;;;;;;;6300857;28;20032;-72
2023/12/27 08:37:34;;;;;;;14.50;7.80;;;;;;;;;;6298235;28;20814;-73
2023/12/27 08:40:36;;;;;;;13.98;7.40;;;;;;;;;;6324662;28;20050;-73
2023/12/27 08:43:41;;;;;;;27.35;12.35;;;;;;;;;;6302079;28;20055;-73
2023/12/27 08:46:43;;;;;;;19.98;11.68;;;;;;;;;;6313671;28;20590;-72
2023/12/27 08:49:45;;;;;;;17.30;10.30;;;;;;;;;;6299471;28;20720;-73
2023/12/27 08:52:48;;;;;;;15.20;9.57;;;;;;;;;;6301538;28;20518;-74
2023/12/27 08:55:51;;;;;;;16.08;7.32;;;;;;;;;;6312131;28;20059;-72
2023/12/27 08:58:54;;;;;;;18.13;9.95;;;;;;;;;;6298837;28;20052;-72
2023/12/27 09:01:56;;;;;;;26.67;12.18;;;;;;;;;;6320154;28;20055;-72
2023/12/27 09:04:58;;;;;;;14.82;8.48;;;;;;;;;;6315436;28;20186;-75
2023/12/27 09:08:01;;;;;;;25.00;10.98;;;;;;;;;;6315732;28;20074;-72
2023/12/27 09:11:04;;;;;;;19.17;10.73;;;;;;;;;;6314674;28;20036;-74
2023/12/27 09:14:06;;;;;;;14.10;7.70;;;;;;;;;;6312510;28;20043;-75
2023/12/27 09:17:08;;;;;;;15.85;8.48;;;;;;;;;;6296110;28;20043;-74
2023/12/27 09:20:11;;;;;;;12.40;6.82;;;;;;;;;;6315476;28;20042;-74
2023/12/27 09:23:13;;;;;;;14.32;7.80;;;;;;;;;;6314381;28;20055;-73
2023/12/27 09:26:15;;;;;;;17.42;6.75;;;;;;;;;;6289269;28;20071;-73
2023/12/27 09:29:18;;;;;;;11.75;6.55;;;;;;;;;;6320118;28;20044;-73
2023/12/27 09:32:21;;;;;;;14.68;7.82;;;;;;;;;;6284536;28;20582;-74
2023/12/27 09:35:23;;;;;;;13.27;8.15;;;;;;;;;;6288182;28;20044;-74
2023/12/27 09:38:25;;;;;;;16.58;9.38;;;;;;;;;;6302418;28;20104;-74
2023/12/27 09:41:27;;;;;;;16.13;9.00;;;;;;;;;;6296256;28;20680;-74
2023/12/27 09:44:32;;;;;;;11.57;7.00;;;;;;;;;;6298889;28;20177;-75
2023/12/27 09:47:36;;;;;;;11.98;6.82;;;;;;;;;;6265161;28;20048;-73
2023/12/27 09:50:40;;;;;;;13.23;6.13;;;;;;;;;;6296321;28;20046;-73
2023/12/27 09:53:44;;;;;;;17.20;7.90;;;;;;;;;;6300308;28;20426;-73
2023/12/27 09:56:47;;;;;;;15.00;6.07;;;;;;;;;;6300275;28;20059;-73
2023/12/27 09:59:51;;;;;;;14.75;7.40;;;;;;;;;;6319301;28;20047;-73
2023/12/27 10:02:58;;;;;;;14.38;7.70;;;;;;;;;;6310870;28;20511;-72
2023/12/27 10:06:32;;;;;;;14.25;8.27;;;;;;;;;;6314519;28;20036;-74
2023/12/27 10:09:35;;;;;;;22.88;10.20;;;;;;;;;;6283948;28;20522;-74
2023/12/27 10:12:39;;;;;;;16.38;8.57;;;;;;;;;;6296905;28;20427;-74
2023/12/27 10:15:42;;;;;;;15.40;8.90;;;;;;;;;;6295800;28;20573;-74
2023/12/27 10:18:46;;;;;;;13.75;7.68;;;;;;;;;;6300144;28;20055;-74
2023/12/27 10:21:51;;;;;;;12.18;6.32;;;;;;;;;;6288924;28;20043;-74
2023/12/27 10:24:54;;;;;;;14.25;5.28;;;;;;;;;;6318647;28;20128;-74
2023/12/27 10:27:56;;;;;;;11.25;4.68;;;;;;;;;;6291176;28;20782;-74
2023/12/27 10:31:04;;;;;;;6.40;3.63;;;;;;;;;;6300464;28;20043;-74
2023/12/27 10:34:08;;;;;;;8.45;4.53;;;;;;;;;;6296631;28;20047;-74
2023/12/27 10:37:12;;;;;;;9.45;3.67;;;;;;;;;;6291744;28;20055;-74
2023/12/27 10:40:14;;;;;;;9.70;4.57;;;;;;;;;;6318400;28;20043;-74
2023/12/27 10:43:17;;;;;;;6.65;4.07;;;;;;;;;;6287852;28;20104;-75
2023/12/27 10:46:19;;;;;;;5.88;3.13;;;;;;;;;;6299901;28;20056;-74
2023/12/27 10:49:22;;;;;;;7.78;3.28;;;;;;;;;;6311204;28;20040;-74
2023/12/27 10:52:25;;;;;;;7.28;3.53;;;;;;;;;;6273123;28;20051;-74
2023/12/27 10:55:29;;;;;;;11.88;4.28;;;;;;;;;;6314699;28;20438;-74
2023/12/27 10:58:32;;;;;;;7.18;3.25;;;;;;;;;;6304591;28;20050;-74
2023/12/27 11:01:35;;;;;;;9.55;3.85;;;;;;;;;;6310061;28;20728;-74
2023/12/27 11:04:38;;;;;;;6.43;3.50;;;;;;;;;;6287593;28;20059;-74
2023/12/27 11:07:41;;;;;;;5.13;2.63;;;;;;;;;;6299528;28;20088;-73
2023/12/27 11:10:44;;;;;;;8.77;4.45;;;;;;;;;;6307505;28;20052;-74
2023/12/27 11:13:47;;;;;;;6.65;3.45;;;;;;;;;;6295158;28;20044;-74
2023/12/27 11:16:52;;;;;;;18.38;3.17;;;;;;;;;;6290272;28;20032;-74
2023/12/27 11:19:54;;;;;;;9.15;3.65;;;;;;;;;;6316787;28;20066;-74
2023/12/27 11:22:57;;;;;;;5.30;2.90;;;;;;;;;;6298368;28;20059;-75
2023/12/27 11:26:00;;;;;;;9.00;3.45;;;;;;;;;;6296249;28;20055;-74
2023/12/27 11:29:09;;;;;;;9.90;4.00;;;;;;;;;;6311923;28;20040;-74
2023/12/27 11:32:12;;;;;;;6.25;2.85;;;;;;;;;;6296450;28;20040;-74
2023/12/27 11:35:23;;;;;;;7.95;3.22;;;;;;;;;;6306740;28;20040;-75
2023/12/27 11:38:26;;;;;;;5.60;2.05;;;;;;;;;;6307692;28;20048;-75
2023/12/27 11:41:29;;;;;;;6.55;2.60;;;;;;;;;;6336621;27;20143;-76
2023/12/27 11:44:41;;;;;;;6.38;2.38;;;;;;;;;;6317385;28;20636;-75
2023/12/27 11:47:46;;;;;;;8.88;4.18;;;;;;;;;;6321679;28;20036;-76
2023/12/27 11:50:48;;;;;;;7.78;3.47;;;;;;;;;;6306677;28;20039;-75
2023/12/27 11:53:53;;;;;;;5.53;2.55;;;;;;;;;;6299464;28;20059;-75
2023/12/27 11:56:55;;;;;;;9.25;2.92;;;;;;;;;;6308080;28;20044;-75
2023/12/27 11:59:59;;;;;;;9.40;3.53;;;;;;;;;;6280490;28;20051;-75
2023/12/27 12:03:09;;;;;;;6.65;3.28;;;;;;;;;;6312814;28;20591;-74
2023/12/27 12:06:34;;;;;;;7.80;2.88;;;;;;;;;;6309767;28;20130;-74
2023/12/27 12:09:40;;;;;;;6.90;3.17;;;;;;;;;;6288179;28;20135;-74
2023/12/27 12:12:42;;;;;;;7.25;2.67;;;;;;;;;;6298804;28;20055;-75
2023/12/27 12:15:45;;;;;;;5.80;2.25;;;;;;;;;;6297216;28;20069;-76
2023/12/27 12:18:47;;;;;;;11.52;5.13;;;;;;;;;;6323291;28;20043;-75
2023/12/27 12:21:51;;;;;;;12.90;8.15;;;;;;;;;;6295016;28;20566;-75
2023/12/27 12:25:05;;;;;;;7.60;4.47;;;;;;;;;;6295048;28;20044;-75
2023/12/27 12:28:07;;;;;;;9.70;4.35;;;;;;;;;;6323760;28;20051;-74
2023/12/27 12:31:09;;;;;;;5.93;3.40;;;;;;;;;;6325774;28;20097;-74
2023/12/27 12:34:11;;;;;;;13.45;6.65;;;;;;;;;;6298208;28;20190;-74
2023/12/27 12:37:14;;;;;;;6.45;3.70;;;;;;;;;;6279220;28;20055;-76
2023/12/27 12:40:16;;;;;;;11.32;3.30;;;;;;;;;;6322432;28;20083;-76
2023/12/27 12:43:19;;;;;;;10.00;4.53;;;;;;;;;;6302360;28;20052;-75
2023/12/27 12:46:25;;;;;;;8.13;4.55;;;;;;;;;;6307730;28;20609;-76
2023/12/27 12:49:27;;;;;;;8.93;3.53;;;;;;;;;;6265425;28;20177;-75
2023/12/27 12:52:30;;;;;;;6.65;3.58;;;;;;;;;;6319443;28;20613;-75
2023/12/27 12:55:32;;;;;;;8.50;4.10;;;;;;;;;;6279530;28;20139;-75
2023/12/27 12:58:35;;;;;;;8.30;3.55;;;;;;;;;;6302028;28;20056;-76
2023/12/27 13:01:38;;;;;;;5.88;3.17;;;;;;;;;;6269014;28;20062;-75
2023/12/27 13:04:40;;;;;;;8.25;3.63;;;;;;;;;;6300228;28;20040;-75
2023/12/27 13:07:42;;;;;;;9.15;5.47;;;;;;;;;;6314140;28;20048;-75
2023/12/27 13:10:46;;;;;;;7.53;3.83;;;;;;;;;;6310333;28;20126;-75
2023/12/27 13:13:49;;;;;;;8.63;4.60;;;;;;;;;;6284144;28;20783;-77
2023/12/27 13:16:52;;;;;;;8.52;5.45;;;;;;;;;;6274203;28;20613;-74
2023/12/27 13:19:54;;;;;;;12.95;6.28;;;;;;;;;;6317810;28;20048;-74
2023/12/27 13:22:57;;;;;;;7.45;3.63;;;;;;;;;;6285674;28;20628;-76
2023/12/27 13:26:01;;;;;;;8.95;3.75;;;;;;;;;;6286041;28;20040;-74
2023/12/27 13:29:03;;;;;;;5.22;3.03;;;;;;;;;;6264761;28;20044;-75
2023/12/27 13:32:09;;;;;;;7.80;4.47;;;;;;;;;;6293344;28;20545;-76
2023/12/27 13:35:14;;;;;;;7.47;4.00;;;;;;;;;;6303122;28;20055;-75
2023/12/27 13:38:16;;;;;;;8.63;3.92;;;;;;;;;;6296102;28;20526;-75
2023/12/27 13:41:18;;;;;;;7.85;3.67;;;;;;;;;;6295702;28;20125;-74
2023/12/27 13:44:21;;;;;;;8.20;4.32;;;;;;;;;;6297471;28;20048;-74
2023/12/27 13:47:23;;;;;;;8.35;4.45;;;;;;;;;;6297917;28;20454;-75
2023/12/27 13:50:27;;;;;;;10.45;4.85;;;;;;;;;;6313435;28;20055;-74
2023/12/27 13:53:29;;;;;;;16.38;7.93;;;;;;;;;;6260152;28;20067;-75
2023/12/27 13:56:31;;;;;;;22.23;6.80;;;;;;;;;;6317264;28;20044;-74
2023/12/27 13:59:33;;;;;;;9.88;4.20;;;;;;;;;;6314164;28;20055;-74
2023/12/27 14:02:36;;;;;;;8.27;3.63;;;;;;;;;;6317746;28;20051;-74
2023/12/27 14:05:40;;;;;;;9.15;4.15;;;;;;;;;;6260533;28;20052;-75
2023/12/27 14:08:42;;;;;;;11.65;4.82;;;;;;;;;;6292209;28;20055;-75
2023/12/27 14:11:44;;;;;;;9.30;3.75;;;;;;;;;;6312816;28;20040;-74
2023/12/27 14:14:47;;;;;;;6.75;3.63;;;;;;;;;;6303915;28;20087;-74
2023/12/27 14:17:49;;;;;;;6.32;3.40;;;;;;;;;;6308427;28;20040;-74
2023/12/27 14:20:51;;;;;;;9.38;4.00;;;;;;;;;;6283809;28;20043;-75
2023/12/27 14:23:53;;;;;;;10.55;4.03;;;;;;;;;;6311499;28;20044;-74
2023/12/27 14:26:55;;;;;;;7.90;4.60;;;;;;;;;;6301209;28;20036;-74
2023/12/27 14:29:57;;;;;;;8.85;5.65;;;;;;;;;;6323290;28;20031;-74
2023/12/27 14:32:59;;;;;;;9.57;4.90;;;;;;;;;;6293219;28;20534;-73
2023/12/27 14:36:05;;;;;;;9.60;4.20;;;;;;;;;;6277808;28;20769;-74
2023/12/27 14:39:09;;;;;;;7.80;4.07;;;;;;;;;;6315803;28;20060;-73
2023/12/27 14:42:12;;;;;;;13.63;6.90;;;;;;;;;;6310647;28;20442;-75
2023/12/27 14:45:15;;;;;;;15.23;8.25;;;;;;;;;;6295152;28;20043;-76
2023/12/27 14:48:17;;;;;;;12.88;6.32;;;;;;;;;;6298507;28;20193;-76
2023/12/27 14:51:20;;;;;;;15.85;7.70;;;;;;;;;;6293243;28;20430;-76
2023/12/27 14:54:22;;;;;;;12.68;7.70;;;;;;;;;;6273029;28;20058;-76
2023/12/27 14:57:25;;;;;;;10.65;6.13;;;;;;;;;;6290815;28;20240;-76
2023/12/27 15:00:27;;;;;;;12.70;4.95;;;;;;;;;;6311408;28;20046;-75
2023/12/27 15:03:30;;;;;;;11.93;4.68;;;;;;;;;;6296499;28;20196;-75
2023/12/27 15:06:32;;;;;;;13.60;7.10;;;;;;;;;;6261156;28;20051;-76
2023/12/27 15:09:35;;;;;;;16.85;7.60;;;;;;;;;;6278008;28;20048;-76
2023/12/27 15:12:38;;;;;;;15.40;9.02;;;;;;;;;;6297657;28;20086;-74
2023/12/27 15:15:40;;;;;;;18.63;8.73;;;;;;;;;;6298420;28;20725;-75
2023/12/27 15:18:43;;;;;;;11.80;6.95;;;;;;;;;;6319408;28;20403;-74
2023/12/27 15:21:48;;;;;;;16.17;7.50;;;;;;;;;;6281692;28;20553;-76
2023/12/27 15:24:51;;;;;;;15.90;7.50;;;;;;;;;;6290117;28;20200;-76
2023/12/27 15:27:53;;;;;;;20.60;7.63;;;;;;;;;;6278895;28;20048;-75
2023/12/27 15:30:56;;;;;;;29.13;13.45;;;;;;;;;;6292712;28;20051;-74
2023/12/27 15:34:05;;;;;;;31.65;16.33;;;;;;;;;;6319532;28;20123;-76
2023/12/27 15:37:08;;;;;;;11.82;4.57;;;;;;;;;;6316292;28;20079;-75
2023/12/27 15:40:10;;;;;;;9.32;4.35;;;;;;;;;;6310690;28;20052;-75
2023/12/27 15:43:12;;;;;;;18.00;12.68;;;;;;;;;;6298271;28;20423;-75
2023/12/27 15:46:21;;;;;;;12.10;7.22;;;;;;;;;;6297955;28;20515;-74
2023/12/27 15:49:25;;;;;;;15.85;8.63;;;;;;;;;;6296039;28;20061;-75
2023/12/27 15:52:27;;;;;;;34.95;16.73;;;;;;;;;;6290515;28;20104;-74
2023/12/27 15:55:30;;;;;;;67.45;28.27;;;;;;;;;;6293664;28;20398;-75
2023/12/27 15:58:32;;;;;;;32.85;14.65;;;;;;;;;;6297794;28;20044;-73
2023/12/27 16:01:35;;;;;;;77.57;36.90;;;;;;;;;;6280528;28;20558;-74
2023/12/27 16:04:38;;;;;;;30.85;15.43;;;;;;;;;;6294910;28;20044;-75
2023/12/27 16:07:40;;;;;;;17.13;8.98;;;;;;;;;;6297670;28;20395;-77
2023/12/27 16:10:42;;;;;;;23.60;13.93;;;;;;;;;;6279663;28;20706;-76
2023/12/27 16:13:46;;;;;;;19.92;10.45;;;;;;;;;;6300704;28;20572;-77
2023/12/27 16:16:48;;;;;;;29.75;14.20;;;;;;;;;;6293145;28;20052;-75
2023/12/27 16:19:51;;;;;;;83.55;33.13;;;;;;;;;;6300719;28;20108;-75
2023/12/27 16:22:54;;;;;;;60.58;27.15;;;;;;;;;;6309944;28;20052;-74
2023/12/27 16:25:57;;;;;;;41.63;22.20;;;;;;;;;;6288244;28;20066;-76
2023/12/27 16:28:59;;;;;;;32.05;21.77;;;;;;;;;;6298410;28;20063;-76
2023/12/27 16:32:01;;;;;;;26.17;18.48;;;;;;;;;;6302422;28;20056;-74
2023/12/27 16:35:04;;;;;;;23.02;11.55;;;;;;;;;;6299749;28;20055;-75
2023/12/27 16:38:06;;;;;;;18.10;11.20;;;;;;;;;;6293178;28;20173;-75
2023/12/27 16:41:10;;;;;;;28.27;17.85;;;;;;;;;;6306008;28;20044;-76
2023/12/27 16:44:13;;;;;;;43.53;21.02;;;;;;;;;;6252479;28;20561;-75
2023/12/27 16:47:15;;;;;;;52.28;25.00;;;;;;;;;;6316429;28;20036;-75
2023/12/27 16:50:17;;;;;;;43.17;23.08;;;;;;;;;;6308469;28;20039;-74
2023/12/27 16:53:21;;;;;;;50.33;31.17;;;;;;;;;;6316957;28;20442;-74
2023/12/27 16:56:24;;;;;;;18.70;11.10;;;;;;;;;;6307693;28;20044;-74
2023/12/27 16:59:26;;;;;;;19.15;10.10;;;;;;;;;;6315010;28;20135;-75
2023/12/27 17:02:28;;;;;;;22.08;12.60;;;;;;;;;;6276829;28;20782;-75
2023/12/27 17:05:33;;;;;;;19.95;10.48;;;;;;;;;;6314728;28;20818;-75
2023/12/27 17:08:35;;;;;;;37.30;19.25;;;;;;;;;;6286125;28;20048;-75
2023/12/27 17:11:38;;;;;;;34.92;19.08;;;;;;;;;;6313447;28;20131;-75
2023/12/27 17:14:40;;;;;;;31.60;19.70;;;;;;;;;;6306225;28;20052;-75
2023/12/27 17:17:43;;;;;;;29.23;17.08;;;;;;;;;;6303352;28;20032;-75
2023/12/27 17:20:45;;;;;;;24.63;15.65;;;;;;;;;;6310550;28;20063;-75
2023/12/27 17:23:48;;;;;;;35.35;19.17;;;;;;;;;;6336334;28;20086;-75
2023/12/27 17:26:50;;;;;;;43.85;25.77;;;;;;;;;;6324316;28;20526;-75
2023/12/27 17:29:56;;;;;;;35.88;24.35;;;;;;;;;;6297217;28;20043;-75
2023/12/27 17:33:00;;;;;;;45.65;24.77;;;;;;;;;;6301052;28;20680;-75
2023/12/27 17:36:03;;;;;;;60.80;37.70;;;;;;;;;;6310288;28;20048;-76
2023/12/27 17:39:05;;;;;;;39.00;23.45;;;;;;;;;;6313354;28;20151;-74
2023/12/27 17:42:08;;;;;;;29.17;21.23;;;;;;;;;;6283199;28;20130;-75
2023/12/27 17:45:15;;;;;;;29.80;17.52;;;;;;;;;;6302043;28;20562;-75
2023/12/27 17:48:18;;;;;;;35.03;25.00;;;;;;;;;;6283135;28;20065;-75
2023/12/27 17:51:20;;;;;;;24.92;15.15;;;;;;;;;;6294859;28;20128;-75
2023/12/27 17:54:22;;;;;;;25.70;17.42;;;;;;;;;;6293316;28;20543;-75
2023/12/27 17:57:25;;;;;;;24.10;16.42;;;;;;;;;;6322440;28;20035;-75
2023/12/27 18:00:27;;;;;;;23.98;13.68;;;;;;;;;;6284966;28;20108;-75